Time;durP1;ratioP1;P1;durP2;ratioP2;P2;SDS_P1;SDS_P2;PMS_P1;PMS_P2;Temp;Humidity;BMP_temperature;BMP_pressure;BME280_temperature;BME280_humidity;BME280_pressure;Samples;Min_cycle;Max_cycle;Signal;HPM_P1;HPM_P2
2023/04/26 00:00:01;;;;;;;7.05;1.45;;;4.40;73.40;;;;;;4996697;28;20057;-68
2023/04/26 00:02:28;;;;;;;4.87;1.27;;;4.40;73.50;;;;;;5023062;28;20943;-68
2023/04/26 00:04:57;;;;;;;7.70;1.30;;;4.40;73.50;;;;;;4999437;28;20257;-68
2023/04/26 00:07:27;;;;;;;6.60;1.58;;;4.40;73.40;;;;;;5033769;28;20058;-68
2023/04/26 00:09:54;;;;;;;4.07;0.95;;;4.30;73.50;;;;;;5024483;28;20050;-68
2023/04/26 00:12:21;;;;;;;4.53;0.80;;;4.30;74.00;;;;;;5026502;28;20128;-68
2023/04/26 00:14:48;;;;;;;7.00;1.37;;;4.30;74.10;;;;;;5007736;28;20051;-68
2023/04/26 00:17:15;;;;;;;8.45;1.27;;;4.30;74.20;;;;;;5028373;28;20316;-68
2023/04/26 00:19:42;;;;;;;7.57;1.80;;;4.20;74.60;;;;;;5027658;28;20605;-69
2023/04/26 00:22:09;;;;;;;5.28;1.35;;;4.20;74.60;;;;;;5025235;28;20104;-68
2023/04/26 00:24:38;;;;;;;6.68;1.40;;;4.20;74.80;;;;;;5008728;28;20062;-68
2023/04/26 00:27:08;;;;;;;3.33;0.97;;;4.20;75.00;;;;;;5009094;28;20050;-68
2023/04/26 00:29:35;;;;;;;6.88;0.98;;;4.20;75.20;;;;;;4992394;28;20274;-68
2023/04/26 00:32:02;;;;;;;2.70;0.63;;;4.10;75.30;;;;;;4992650;28;20054;-68
2023/04/26 00:34:33;;;;;;;3.72;1.13;;;4.10;75.60;;;;;;4982792;28;20517;-68
2023/04/26 00:37:00;;;;;;;7.90;1.08;;;4.10;75.30;;;;;;5007723;28;20062;-68
2023/04/26 00:39:27;;;;;;;5.73;1.50;;;4.10;75.60;;;;;;4987272;28;20538;-68
2023/04/26 00:41:55;;;;;;;3.22;0.60;;;4.10;75.50;;;;;;4995462;28;20355;-68
2023/04/26 00:44:22;;;;;;;6.28;0.90;;;4.10;75.70;;;;;;4989268;28;20054;-68
2023/04/26 00:46:51;;;;;;;6.80;1.50;;;4.00;75.80;;;;;;4994667;28;20052;-68
2023/04/26 00:49:23;;;;;;;3.90;0.80;;;4.00;76.10;;;;;;4994368;28;20583;-68
2023/04/26 00:51:52;;;;;;;6.80;1.60;;;4.00;76.20;;;;;;5011769;28;20049;-68
2023/04/26 00:54:20;;;;;;;6.43;1.40;;;4.00;76.10;;;;;;5025519;28;20353;-69
2023/04/26 00:56:50;;;;;;;6.35;1.50;;;4.00;76.10;;;;;;4997091;28;20042;-69
2023/04/26 00:59:20;;;;;;;7.50;1.40;;;4.00;76.30;;;;;;5010172;28;20056;-68
2023/04/26 01:01:47;;;;;;;7.60;1.70;;;4.00;76.40;;;;;;5003258;28;20124;-68
2023/04/26 01:04:14;;;;;;;3.97;0.93;;;4.00;76.30;;;;;;5016680;28;20080;-67
2023/04/26 01:06:42;;;;;;;6.70;1.40;;;4.00;76.50;;;;;;5003156;28;20281;-68
2023/04/26 01:09:11;;;;;;;5.57;1.10;;;4.00;76.70;;;;;;5028348;28;20137;-68
2023/04/26 01:11:38;;;;;;;6.18;1.33;;;4.00;76.60;;;;;;5028737;28;20060;-68
2023/04/26 01:14:07;;;;;;;7.35;1.55;;;4.00;76.50;;;;;;4999086;28;20883;-69
2023/04/26 01:16:36;;;;;;;5.77;1.17;;;4.00;76.60;;;;;;4976749;28;20050;-67
2023/04/26 01:19:09;;;;;;;5.82;1.38;;;4.00;76.60;;;;;;5025348;28;20289;-68
2023/04/26 01:21:36;;;;;;;3.95;0.93;;;4.00;76.70;;;;;;5006563;28;20480;-69
2023/04/26 01:24:05;;;;;;;3.65;0.85;;;3.90;76.80;;;;;;5003639;28;20062;-68
2023/04/26 01:26:32;;;;;;;6.40;1.33;;;3.90;76.70;;;;;;5009606;28;20085;-68
2023/04/26 01:29:00;;;;;;;6.57;1.20;;;3.90;76.80;;;;;;4991745;28;20141;-68
2023/04/26 01:31:27;;;;;;;3.92;1.20;;;3.90;76.70;;;;;;5008606;28;20250;-68
2023/04/26 01:33:54;;;;;;;6.68;1.48;;;3.90;76.80;;;;;;5010655;28;20366;-68
2023/04/26 01:36:21;;;;;;;6.97;1.23;;;3.90;76.90;;;;;;5027244;28;20129;-69
2023/04/26 01:38:48;;;;;;;7.28;1.33;;;3.90;76.80;;;;;;5002817;28;20073;-68
2023/04/26 01:41:16;;;;;;;6.27;1.37;;;3.90;76.80;;;;;;4981267;28;20599;-68
2023/04/26 01:43:43;;;;;;;6.05;1.25;;;3.90;76.80;;;;;;4992768;28;20250;-68
2023/04/26 01:46:10;;;;;;;4.07;1.35;;;3.90;76.80;;;;;;5002261;28;20046;-68
2023/04/26 01:48:37;;;;;;;5.35;1.48;;;3.90;76.80;;;;;;4976698;28;20117;-68
2023/04/26 01:51:04;;;;;;;5.97;1.27;;;3.90;76.80;;;;;;4996516;28;20591;-68
2023/04/26 01:53:30;;;;;;;5.50;1.20;;;3.90;77.10;;;;;;4998987;28;20126;-68
2023/04/26 01:56:01;;;;;;;4.60;1.17;;;3.90;77.60;;;;;;4992534;28;20254;-68
2023/04/26 01:58:29;;;;;;;7.60;1.30;;;3.90;77.50;;;;;;5007216;28;20464;-67
2023/04/26 02:00:56;;;;;;;6.55;1.30;;;3.90;77.60;;;;;;5005153;28;20141;-68
2023/04/26 02:03:23;;;;;;;5.28;1.35;;;3.90;77.60;;;;;;5001674;28;20634;-68
2023/04/26 02:05:51;;;;;;;6.53;1.20;;;3.90;77.70;;;;;;4990158;28;20108;-68
2023/04/26 02:08:18;;;;;;;6.80;1.13;;;3.90;77.70;;;;;;4990217;28;20349;-68
2023/04/26 02:10:45;;;;;;;7.28;1.10;;;3.90;77.90;;;;;;4991302;28;20045;-68
2023/04/26 02:13:12;;;;;;;3.42;0.80;;;3.90;77.80;;;;;;5028455;28;20046;-68
2023/04/26 02:15:41;;;;;;;5.07;1.20;;;3.90;77.80;;;;;;5007818;28;20049;-68
2023/04/26 02:18:08;;;;;;;7.47;1.43;;;3.90;77.70;;;;;;5005840;28;20921;-68
2023/04/26 02:20:36;;;;;;;6.90;1.20;;;3.90;77.70;;;;;;4980841;28;20704;-68
2023/04/26 02:23:03;;;;;;;3.47;1.00;;;3.90;77.60;;;;;;4994487;28;20595;-69
2023/04/26 02:25:31;;;;;;;5.47;1.10;;;3.90;77.60;;;;;;4990782;28;20157;-68
2023/04/26 02:27:58;;;;;;;4.03;0.90;;;4.00;77.60;;;;;;4993418;28;20046;-68
2023/04/26 02:30:24;;;;;;;3.60;0.93;;;4.00;77.60;;;;;;5024705;28;20056;-68
2023/04/26 02:32:55;;;;;;;4.97;1.10;;;4.00;77.60;;;;;;4991541;28;20258;-68
2023/04/26 02:35:22;;;;;;;5.88;1.00;;;4.00;77.50;;;;;;4998730;28;20073;-68
2023/04/26 02:37:51;;;;;;;5.50;1.30;;;4.00;77.50;;;;;;4992817;28;20133;-68
2023/04/26 02:40:19;;;;;;;3.83;1.27;;;4.00;77.50;;;;;;5020127;28;20054;-68
2023/04/26 02:42:46;;;;;;;6.80;0.90;;;4.10;77.70;;;;;;5001697;28;20448;-68
2023/04/26 02:45:13;;;;;;;4.90;1.00;;;4.10;77.50;;;;;;4985985;28;20863;-68
2023/04/26 02:47:41;;;;;;;5.78;1.00;;;4.00;77.50;;;;;;5000643;28;20081;-68
2023/04/26 02:50:10;;;;;;;6.80;1.23;;;4.10;77.50;;;;;;4999558;28;20057;-68
2023/04/26 02:52:38;;;;;;;5.40;1.13;;;4.10;77.40;;;;;;4989528;28;20567;-68
2023/04/26 02:55:06;;;;;;;5.73;0.90;;;4.10;77.40;;;;;;4973326;28;20074;-68
2023/04/26 02:57:33;;;;;;;5.60;1.20;;;4.10;77.50;;;;;;4985489;28;20277;-67
2023/04/26 03:00:00;;;;;;;4.88;1.00;;;4.10;77.30;;;;;;5001718;28;20372;-68
2023/04/26 03:02:27;;;;;;;3.75;0.90;;;4.10;77.40;;;;;;4984979;28;20591;-68
2023/04/26 03:04:56;;;;;;;5.95;1.15;;;4.10;77.30;;;;;;4989685;28;20046;-68
2023/04/26 03:07:24;;;;;;;4.30;1.10;;;4.00;77.30;;;;;;5001034;28;20483;-68
2023/04/26 03:09:51;;;;;;;4.95;1.60;;;4.00;77.30;;;;;;4984073;28;20729;-68
2023/04/26 03:12:18;;;;;;;6.93;1.40;;;4.00;77.40;;;;;;5001684;28;20054;-68
2023/04/26 03:14:45;;;;;;;7.63;1.65;;;4.00;77.30;;;;;;4980604;28;20176;-68
2023/04/26 03:17:12;;;;;;;5.35;1.40;;;4.00;77.40;;;;;;4995963;28;20128;-68
2023/04/26 03:19:39;;;;;;;5.20;1.23;;;4.00;77.30;;;;;;5007199;28;20057;-68
2023/04/26 03:22:06;;;;;;;8.05;1.30;;;4.00;77.30;;;;;;4986638;28;20702;-68
2023/04/26 03:24:35;;;;;;;4.22;1.20;;;4.00;77.30;;;;;;4999905;28;20168;-68
2023/04/26 03:27:02;;;;;;;6.22;1.33;;;4.00;77.30;;;;;;4991020;28;20538;-68
2023/04/26 03:29:29;;;;;;;4.63;1.02;;;4.00;77.20;;;;;;5003792;28;20615;-68
2023/04/26 03:31:55;;;;;;;7.30;1.43;;;4.00;77.30;;;;;;4989142;28;20070;-68
2023/04/26 03:34:22;;;;;;;3.70;0.85;;;4.00;77.20;;;;;;5004023;28;20929;-68
2023/04/26 03:36:50;;;;;;;7.03;1.20;;;4.00;77.30;;;;;;4986176;28;20275;-67
2023/04/26 03:39:17;;;;;;;3.65;0.68;;;4.00;77.20;;;;;;4991361;28;20054;-68
2023/04/26 03:41:45;;;;;;;4.97;1.00;;;3.90;77.30;;;;;;5006604;28;20053;-68
2023/04/26 03:44:13;;;;;;;5.50;1.00;;;3.90;77.20;;;;;;5009165;28;20054;-68
2023/04/26 03:46:40;;;;;;;5.68;1.00;;;3.90;77.40;;;;;;5004841;28;20393;-67
2023/04/26 03:49:07;;;;;;;5.30;0.93;;;3.90;77.50;;;;;;4987212;28;20137;-68
2023/04/26 03:51:34;;;;;;;4.97;1.15;;;3.90;77.60;;;;;;5019290;28;20081;-68
2023/04/26 03:54:01;;;;;;;9.23;1.30;;;3.90;77.60;;;;;;5025953;28;20120;-68
2023/04/26 03:56:28;;;;;;;6.17;1.10;;;3.80;77.50;;;;;;4998846;28;20050;-68
2023/04/26 03:58:56;;;;;;;4.43;0.90;;;3.80;77.70;;;;;;4985720;28;20262;-68
2023/04/26 04:01:24;;;;;;;4.68;1.40;;;3.80;78.00;;;;;;5002219;28;20102;-68
2023/04/26 04:03:51;;;;;;;5.10;1.30;;;3.70;77.90;;;;;;4993787;28;20042;-68
2023/04/26 04:06:19;;;;;;;4.65;1.08;;;3.70;77.90;;;;;;5011229;28;20058;-68
2023/04/26 04:08:46;;;;;;;5.40;1.00;;;3.70;77.90;;;;;;4985104;28;20089;-67
2023/04/26 04:11:13;;;;;;;6.22;1.50;;;3.70;78.00;;;;;;5011575;28;20257;-68
2023/04/26 04:13:41;;;;;;;2.95;0.77;;;3.70;78.10;;;;;;4992516;28;20046;-68
2023/04/26 04:16:09;;;;;;;5.60;1.25;;;3.70;78.50;;;;;;4992524;28;20054;-68
2023/04/26 04:18:36;;;;;;;4.55;1.10;;;3.70;78.30;;;;;;4995508;28;20115;-67
2023/04/26 04:21:04;;;;;;;4.83;1.30;;;3.60;78.40;;;;;;5003694;28;20047;-68
2023/04/26 04:23:31;;;;;;;2.97;0.85;;;3.60;78.60;;;;;;4982542;28;20259;-68
2023/04/26 04:25:59;;;;;;;5.78;1.02;;;3.60;79.00;;;;;;5007999;28;20054;-67
2023/04/26 04:28:27;;;;;;;6.78;1.20;;;3.60;79.00;;;;;;4998989;28;20050;-68
2023/04/26 04:30:56;;;;;;;3.72;0.70;;;3.60;78.80;;;;;;5005402;28;20746;-68
2023/04/26 04:33:27;;;;;;;4.87;1.07;;;3.60;79.10;;;;;;5003828;28;20574;-68
2023/04/26 04:35:57;;;;;;;6.57;1.30;;;3.60;79.20;;;;;;5001878;28;20719;-68
2023/04/26 04:38:24;;;;;;;4.18;1.30;;;3.50;79.10;;;;;;4990589;28;20066;-68
2023/04/26 04:40:52;;;;;;;4.35;1.10;;;3.50;79.20;;;;;;5001465;28;20050;-68
2023/04/26 04:43:20;;;;;;;5.15;1.20;;;3.50;79.30;;;;;;5000610;28;20129;-68
2023/04/26 04:45:48;;;;;;;3.97;0.70;;;3.50;79.50;;;;;;4995091;28;20159;-68
2023/04/26 04:48:15;;;;;;;6.55;1.50;;;3.50;79.70;;;;;;4995302;28;20688;-67
2023/04/26 04:50:43;;;;;;;5.35;1.70;;;3.50;79.80;;;;;;4989391;28;20050;-68
2023/04/26 04:53:11;;;;;;;7.97;1.17;;;3.50;79.90;;;;;;5005670;28;20046;-68
2023/04/26 04:55:38;;;;;;;5.82;1.30;;;3.50;80.10;;;;;;4999857;28;20239;-68
2023/04/26 04:58:05;;;;;;;5.47;1.30;;;3.50;80.20;;;;;;4989993;28;20497;-68
2023/04/26 05:00:33;;;;;;;5.75;1.00;;;3.50;80.20;;;;;;5002426;28;20277;-69
2023/04/26 05:03:14;;;;;;;5.13;1.20;;;3.50;80.20;;;;;;4989073;28;20053;-68
2023/04/26 05:05:42;;;;;;;3.78;1.30;;;3.50;80.30;;;;;;5004331;28;20361;-68
2023/04/26 05:08:10;;;;;;;4.25;1.20;;;3.50;80.30;;;;;;5005040;28;20054;-68
2023/04/26 05:10:37;;;;;;;4.87;1.07;;;3.60;80.50;;;;;;5007867;28;20057;-68
2023/04/26 05:13:05;;;;;;;4.90;1.10;;;3.60;80.60;;;;;;4985718;28;20302;-68
2023/04/26 05:15:32;;;;;;;7.82;1.60;;;3.60;80.60;;;;;;4990422;28;20050;-68
2023/04/26 05:17:59;;;;;;;4.25;1.30;;;3.60;80.70;;;;;;5002840;28;20074;-67
2023/04/26 05:20:27;;;;;;;6.28;1.38;;;3.70;80.90;;;;;;5026479;28;20054;-68
2023/04/26 05:22:56;;;;;;;6.37;1.67;;;3.70;80.90;;;;;;4989168;28;20516;-68
2023/04/26 05:25:23;;;;;;;6.22;1.60;;;3.70;80.80;;;;;;4994458;28;20315;-68
2023/04/26 05:27:57;;;;;;;3.90;0.77;;;3.80;80.70;;;;;;4992684;28;20068;-68
2023/04/26 05:30:33;;;;;;;8.43;1.52;;;3.90;80.80;;;;;;5010617;28;21107;-68
2023/04/26 05:33:21;;;;;;;7.90;1.55;;;3.90;80.60;;;;;;4986937;28;20050;-68
2023/04/26 05:35:56;;;;;;;6.23;1.20;;;3.90;80.70;;;;;;4980842;28;20047;-67
2023/04/26 05:38:26;;;;;;;5.30;1.48;;;4.00;80.50;;;;;;5002970;28;20273;-68
2023/04/26 05:40:53;;;;;;;8.18;1.20;;;4.00;80.40;;;;;;4983785;28;20042;-68
2023/04/26 05:43:20;;;;;;;4.93;1.38;;;4.00;80.30;;;;;;4981471;28;20129;-68
2023/04/26 05:45:51;;;;;;;4.03;1.20;;;4.10;80.40;;;;;;4990909;28;20046;-68
2023/04/26 05:48:21;;;;;;;6.63;1.17;;;4.10;80.60;;;;;;5001729;28;20166;-68
2023/04/26 05:50:48;;;;;;;3.50;0.77;;;4.10;80.60;;;;;;5009349;28;20264;-67
2023/04/26 05:53:15;;;;;;;4.45;1.10;;;4.20;80.50;;;;;;4992389;28;20049;-68
2023/04/26 05:55:44;;;;;;;3.53;0.95;;;4.30;80.50;;;;;;4990929;28;20385;-68
2023/04/26 05:58:16;;;;;;;2.28;0.50;;;4.30;80.40;;;;;;4986977;28;20046;-68
2023/04/26 06:00:43;;;;;;;6.40;1.17;;;4.40;80.30;;;;;;4984682;28;20136;-69
2023/04/26 06:03:11;;;;;;;6.53;1.50;;;4.40;79.90;;;;;;4997041;28;20800;-68
2023/04/26 06:05:40;;;;;;;5.90;1.52;;;4.50;79.90;;;;;;4992030;28;20563;-68
2023/04/26 06:08:07;;;;;;;3.40;1.00;;;4.50;80.00;;;;;;5006535;28;20442;-68
2023/04/26 06:10:36;;;;;;;6.03;1.02;;;4.60;79.90;;;;;;4990774;28;20046;-68
2023/04/26 06:13:05;;;;;;;3.53;0.97;;;4.70;79.30;;;;;;4999584;28;20051;-68
2023/04/26 06:15:34;;;;;;;4.15;0.93;;;4.70;79.40;;;;;;5000030;28;20308;-68
2023/04/26 06:18:02;;;;;;;6.13;1.70;;;4.90;79.10;;;;;;4988552;28;20445;-68
2023/04/26 06:20:29;;;;;;;6.25;1.45;;;4.90;79.00;;;;;;4999008;28;20171;-68
2023/04/26 06:22:56;;;;;;;4.80;0.93;;;5.00;78.50;;;;;;4998794;28;20053;-68
2023/04/26 06:25:23;;;;;;;5.93;1.47;;;5.00;78.00;;;;;;4992535;28;20948;-68
2023/04/26 06:27:50;;;;;;;5.43;1.40;;;5.10;77.60;;;;;;5006340;28;20245;-67
2023/04/26 06:30:19;;;;;;;3.88;1.10;;;5.10;77.00;;;;;;5002931;28;20054;-67
2023/04/26 06:32:48;;;;;;;3.53;0.90;;;5.10;77.00;;;;;;5001596;28;20053;-67
2023/04/26 06:35:15;;;;;;;4.38;0.95;;;5.10;77.10;;;;;;4989883;28;20109;-68
2023/04/26 06:37:43;;;;;;;2.20;0.60;;;5.20;77.00;;;;;;5005501;28;21888;-68
2023/04/26 06:40:14;;;;;;;5.57;1.33;;;5.20;77.10;;;;;;4982140;28;20282;-68
2023/04/26 06:42:42;;;;;;;5.03;1.45;;;5.30;76.80;;;;;;5020157;28;20058;-67
2023/04/26 06:45:39;;;;;;;4.75;1.05;;;5.30;76.50;;;;;;5002505;28;20042;-68
2023/04/26 06:48:07;;;;;;;2.83;0.57;;;5.30;76.20;;;;;;4982825;28;20544;-67
2023/04/26 06:50:38;;;;;;;4.90;1.30;;;5.40;75.90;;;;;;4989754;28;20587;-68
2023/04/26 06:53:05;;;;;;;5.40;1.20;;;5.50;76.20;;;;;;5007691;28;20261;-67
2023/04/26 06:55:32;;;;;;;4.65;1.00;;;5.50;75.50;;;;;;5003513;28;20513;-67
2023/04/26 06:57:59;;;;;;;4.40;0.90;;;5.50;75.70;;;;;;4998358;28;20136;-67
2023/04/26 07:00:26;;;;;;;6.18;1.00;;;5.50;75.40;;;;;;5017981;28;20136;-68
2023/04/26 07:02:55;;;;;;;3.37;0.77;;;5.60;74.80;;;;;;5008758;28;20054;-67
2023/04/26 07:05:22;;;;;;;3.53;0.55;;;5.60;74.70;;;;;;5018108;28;20297;-67
2023/04/26 07:07:49;;;;;;;4.20;1.02;;;5.70;74.30;;;;;;5020021;28;20061;-67
2023/04/26 07:10:17;;;;;;;3.95;0.93;;;5.70;74.10;;;;;;5020691;28;20050;-67
2023/04/26 07:12:44;;;;;;;4.80;0.85;;;5.70;74.90;;;;;;5022794;28;20985;-67
2023/04/26 07:15:12;;;;;;;4.10;1.00;;;5.70;74.00;;;;;;4978104;28;20046;-67
2023/04/26 07:17:39;;;;;;;2.70;0.63;;;5.80;74.90;;;;;;4999367;28;20278;-68
2023/04/26 07:20:09;;;;;;;5.60;1.30;;;5.80;74.90;;;;;;5000826;28;20519;-67
2023/04/26 07:22:36;;;;;;;2.83;0.70;;;5.90;74.20;;;;;;5021961;28;20086;-67
2023/04/26 07:25:03;;;;;;;6.45;1.00;;;6.00;73.30;;;;;;4988989;28;20097;-67
2023/04/26 07:27:31;;;;;;;4.43;1.00;;;6.00;73.60;;;;;;4989677;28;20850;-67
2023/04/26 07:29:58;;;;;;;2.92;0.70;;;6.10;73.60;;;;;;4986575;28;21177;-68
2023/04/26 07:32:25;;;;;;;7.40;1.33;;;6.10;74.20;;;;;;5003089;28;20046;-68
2023/04/26 07:34:52;;;;;;;5.93;1.10;;;6.10;74.00;;;;;;5005258;28;20062;-67
2023/04/26 07:37:21;;;;;;;2.60;0.70;;;6.20;73.40;;;;;;5012207;28;20163;-68
2023/04/26 07:39:48;;;;;;;4.87;1.10;;;6.30;72.00;;;;;;5024353;28;20058;-68
2023/04/26 07:42:15;;;;;;;4.68;1.05;;;6.30;71.60;;;;;;5006659;28;20245;-68
2023/04/26 07:44:42;;;;;;;4.68;0.90;;;6.40;70.40;;;;;;5010764;28;20060;-68
2023/04/26 07:47:13;;;;;;;4.35;0.52;;;6.40;69.60;;;;;;5027728;28;20170;-67
2023/04/26 07:49:40;;;;;;;5.93;1.10;;;6.50;69.00;;;;;;5021602;28;20050;-67
2023/04/26 07:52:09;;;;;;;6.27;1.17;;;6.50;69.90;;;;;;5022822;28;20061;-67
2023/04/26 07:54:39;;;;;;;2.85;0.68;;;6.50;70.90;;;;;;5022616;28;20296;-67
2023/04/26 07:57:06;;;;;;;6.18;1.17;;;6.60;70.40;;;;;;5025778;28;20053;-68
2023/04/26 07:59:33;;;;;;;5.07;1.00;;;6.60;68.90;;;;;;5007087;28;20054;-69
2023/04/26 08:02:00;;;;;;;3.58;0.52;;;6.60;69.60;;;;;;5008466;28;20042;-68
2023/04/26 08:04:32;;;;;;;5.73;1.07;;;6.70;69.50;;;;;;5008235;28;20046;-68
2023/04/26 08:07:00;;;;;;;4.65;1.05;;;6.70;69.90;;;;;;5006812;28;20265;-68
2023/04/26 08:09:27;;;;;;;3.30;0.70;;;6.80;69.90;;;;;;5025083;28;20116;-68
2023/04/26 08:11:56;;;;;;;5.45;0.95;;;6.90;69.90;;;;;;5007102;28;20045;-67
2023/04/26 08:14:23;;;;;;;4.57;0.80;;;7.00;68.30;;;;;;5026312;28;21050;-68
2023/04/26 08:16:50;;;;;;;5.77;0.90;;;7.00;67.80;;;;;;5029301;28;20133;-67
2023/04/26 08:19:18;;;;;;;3.58;0.70;;;7.00;67.70;;;;;;5024193;28;20259;-68
2023/04/26 08:21:45;;;;;;;6.78;1.00;;;7.00;68.00;;;;;;5025853;28;20072;-68
2023/04/26 08:24:12;;;;;;;4.90;0.85;;;7.10;68.50;;;;;;5007311;28;20053;-68
2023/04/26 08:26:40;;;;;;;3.35;0.75;;;7.10;68.70;;;;;;5004413;28;20583;-68
2023/04/26 08:29:08;;;;;;;2.50;0.63;;;7.20;68.30;;;;;;5026038;28;20054;-68
2023/04/26 08:31:35;;;;;;;4.22;1.02;;;7.20;67.90;;;;;;5025677;28;20274;-68
2023/04/26 08:34:02;;;;;;;3.05;0.70;;;7.20;67.20;;;;;;5028244;28;20516;-67
2023/04/26 08:36:31;;;;;;;5.35;0.90;;;7.20;65.40;;;;;;5025019;28;20080;-67
2023/04/26 08:38:58;;;;;;;7.30;1.05;;;7.30;65.60;;;;;;5027655;28;20066;-67
2023/04/26 08:41:26;;;;;;;2.33;0.50;;;7.30;65.20;;;;;;5007599;28;20598;-67
2023/04/26 08:43:55;;;;;;;2.67;0.57;;;7.40;65.80;;;;;;4998811;28;20444;-67
2023/04/26 08:46:26;;;;;;;2.28;0.45;;;7.40;64.50;;;;;;5008195;28;20066;-67
2023/04/26 08:49:05;;;;;;;4.03;0.85;;;7.40;63.90;;;;;;5016766;28;20495;-67
2023/04/26 08:51:34;;;;;;;4.95;0.80;;;7.40;63.70;;;;;;5007418;28;20512;-68
2023/04/26 08:54:03;;;;;;;2.97;0.77;;;7.40;64.50;;;;;;5023876;28;20062;-68
2023/04/26 08:56:34;;;;;;;3.30;0.90;;;7.30;63.20;;;;;;5008051;28;20250;-68
2023/04/26 08:59:01;;;;;;;6.05;0.95;;;7.40;63.20;;;;;;5005358;28;20050;-68
2023/04/26 09:01:32;;;;;;;5.07;0.82;;;7.40;63.00;;;;;;5004771;28;20141;-68
2023/04/26 09:04:00;;;;;;;4.07;0.90;;;7.40;64.40;;;;;;5023503;28;20050;-68
2023/04/26 09:06:27;;;;;;;5.07;0.87;;;7.40;64.70;;;;;;5027219;28;20050;-68
2023/04/26 09:08:55;;;;;;;3.03;0.73;;;7.40;64.10;;;;;;4998482;28;20251;-67
2023/04/26 09:11:23;;;;;;;3.03;0.90;;;7.50;63.80;;;;;;5000900;28;20358;-67
2023/04/26 09:13:50;;;;;;;3.03;0.60;;;7.50;63.10;;;;;;5009637;28;20076;-68
2023/04/26 09:16:17;;;;;;;4.32;0.90;;;7.60;61.70;;;;;;5003883;28;20057;-68
2023/04/26 09:18:51;;;;;;;3.03;0.67;;;7.60;63.00;;;;;;5019948;28;20061;-68
2023/04/26 09:21:19;;;;;;;3.45;0.60;;;7.60;64.20;;;;;;5026164;28;20398;-68
2023/04/26 09:23:59;;;;;;;3.65;0.50;;;7.70;61.70;;;;;;5014506;28;20065;-68
2023/04/26 09:26:26;;;;;;;3.35;0.82;;;7.70;61.80;;;;;;5002565;28;20056;-68
2023/04/26 09:29:12;;;;;;;4.18;0.80;;;7.70;63.00;;;;;;5019676;28;20132;-68
2023/04/26 09:31:42;;;;;;;4.97;1.13;;;7.80;60.60;;;;;;5026162;28;21039;-68
2023/04/26 09:34:11;;;;;;;1.90;0.40;;;7.80;58.60;;;;;;4986559;28;20277;-68
2023/04/26 09:36:47;;;;;;;5.50;0.75;;;7.80;58.40;;;;;;5008370;28;20084;-68
2023/04/26 09:39:15;;;;;;;4.30;0.85;;;7.80;59.90;;;;;;5002608;28;20395;-68
2023/04/26 09:41:45;;;;;;;5.03;0.95;;;7.90;60.70;;;;;;5021902;28;20132;-68
2023/04/26 09:44:22;;;;;;;2.27;0.60;;;8.00;62.00;;;;;;5000899;28;20060;-68
2023/04/26 09:47:03;;;;;;;4.30;0.70;;;8.00;58.20;;;;;;4993530;28;20245;-70
2023/04/26 09:49:33;;;;;;;4.13;0.80;;;8.00;57.00;;;;;;4988499;28;20061;-68
2023/04/26 09:52:01;;;;;;;2.47;0.40;;;8.00;59.30;;;;;;5006944;28;20053;-68
2023/04/26 09:54:45;;;;;;;3.75;0.80;;;8.10;58.20;;;;;;5007921;28;20172;-69
2023/04/26 09:57:14;;;;;;;2.80;0.80;;;8.10;58.70;;;;;;4989257;28;20046;-70
2023/04/26 09:59:43;;;;;;;5.43;1.02;;;8.10;58.40;;;;;;5008460;28;21087;-70
2023/04/26 10:02:16;;;;;;;5.28;0.80;;;8.20;59.10;;;;;;5008540;28;20054;-68
2023/04/26 10:04:47;;;;;;;4.35;0.70;;;8.20;59.80;;;;;;4991679;28;20129;-68
2023/04/26 10:07:16;;;;;;;4.43;0.90;;;8.30;57.80;;;;;;4991729;28;20162;-68
2023/04/26 10:09:43;;;;;;;3.30;0.70;;;8.40;57.50;;;;;;4990469;28;20154;-68
2023/04/26 10:12:11;;;;;;;4.30;0.82;;;8.40;56.60;;;;;;4990890;28;20259;-67
2023/04/26 10:14:38;;;;;;;3.17;0.60;;;8.40;56.00;;;;;;5023641;28;20458;-67
2023/04/26 10:17:06;;;;;;;3.42;0.80;;;8.40;58.00;;;;;;5029071;28;20053;-68
2023/04/26 10:19:34;;;;;;;6.40;0.75;;;8.40;60.50;;;;;;5003502;28;20477;-67
2023/04/26 10:22:06;;;;;;;6.67;1.87;;;8.40;61.60;;;;;;4989990;28;20057;-68
2023/04/26 10:24:35;;;;;;;6.20;1.30;;;8.40;62.30;;;;;;5004629;28;20347;-67
2023/04/26 10:27:03;;;;;;;4.70;0.90;;;8.40;62.90;;;;;;5021272;28;20050;-67
2023/04/26 10:30:06;;;;;;;8.05;1.27;;;8.40;63.30;;;;;;5021973;28;20057;-67
2023/04/26 10:32:33;;;;;;;4.10;0.70;;;8.40;63.70;;;;;;5001897;28;20050;-67
2023/04/26 10:35:11;;;;;;;6.57;1.50;;;8.40;63.50;;;;;;5010105;28;20054;-67
2023/04/26 10:38:10;;;;;;;5.15;1.52;;;8.30;63.70;;;;;;5022125;28;20388;-67
2023/04/26 10:40:39;;;;;;;4.35;1.13;;;8.30;63.00;;;;;;5007872;28;20958;-66
2023/04/26 10:43:28;;;;;;;3.33;0.93;;;8.20;62.70;;;;;;5006082;28;20925;-67
2023/04/26 10:45:56;;;;;;;6.90;1.25;;;8.20;62.20;;;;;;5023893;28;20048;-67
2023/04/26 10:48:29;;;;;;;6.63;0.97;;;8.10;62.90;;;;;;5006171;28;20042;-67
2023/04/26 10:51:11;;;;;;;4.35;0.68;;;8.10;61.90;;;;;;5020328;28;20353;-67
2023/04/26 10:54:01;;;;;;;6.97;0.80;;;8.10;62.20;;;;;;5020253;28;20561;-67
2023/04/26 10:56:54;;;;;;;3.92;0.98;;;8.10;62.80;;;;;;5023489;28;20088;-67
2023/04/26 10:59:22;;;;;;;2.83;0.60;;;8.10;61.50;;;;;;5018724;28;20137;-68
2023/04/26 11:01:52;;;;;;;3.73;1.13;;;8.00;62.00;;;;;;5022949;28;20060;-68
2023/04/26 11:04:19;;;;;;;5.75;1.40;;;8.00;61.70;;;;;;5018961;28;20733;-68
2023/04/26 11:06:50;;;;;;;5.50;1.10;;;8.00;62.30;;;;;;4999664;28;20054;-68
2023/04/26 11:09:40;;;;;;;6.05;1.50;;;8.00;62.10;;;;;;5015822;28;20085;-67
2023/04/26 11:12:12;;;;;;;6.70;1.40;;;8.00;62.50;;;;;;5007552;28;20054;-67
2023/04/26 11:14:40;;;;;;;4.40;1.40;;;8.00;62.00;;;;;;5004276;28;20755;-68
2023/04/26 11:17:08;;;;;;;5.20;1.30;;;8.10;61.60;;;;;;5005094;28;20328;-68
2023/04/26 11:19:35;;;;;;;4.22;1.20;;;8.10;61.90;;;;;;5018948;28;20551;-68
2023/04/26 11:22:06;;;;;;;4.75;1.27;;;8.20;62.40;;;;;;5003724;28;20972;-67
2023/04/26 11:24:35;;;;;;;6.22;1.23;;;8.30;58.70;;;;;;4999459;28;21032;-67
2023/04/26 11:27:08;;;;;;;7.20;1.53;;;8.30;60.50;;;;;;4997059;28;20133;-68
2023/04/26 11:29:35;;;;;;;5.13;1.00;;;8.40;60.50;;;;;;5020689;28;20257;-68
2023/04/26 11:32:03;;;;;;;6.43;1.42;;;8.50;62.30;;;;;;5019010;28;20053;-68
2023/04/26 11:34:33;;;;;;;4.75;1.35;;;8.60;58.30;;;;;;5001416;28;20509;-68
2023/04/26 11:37:01;;;;;;;3.55;0.75;;;8.70;59.40;;;;;;5019797;28;20054;-68
2023/04/26 11:39:28;;;;;;;2.67;0.67;;;8.80;59.10;;;;;;5020500;28;20189;-67
2023/04/26 11:42:06;;;;;;;6.40;1.23;;;8.90;59.20;;;;;;5004741;28;20839;-68
2023/04/26 11:44:33;;;;;;;5.20;1.15;;;8.90;59.10;;;;;;4999233;28;20054;-68
2023/04/26 11:47:02;;;;;;;5.00;1.20;;;9.00;57.40;;;;;;5001492;28;20049;-68
2023/04/26 11:49:30;;;;;;;4.72;0.90;;;9.00;56.90;;;;;;4988653;28;20046;-68
2023/04/26 11:51:58;;;;;;;4.37;0.73;;;9.00;56.70;;;;;;5025010;28;20058;-68
2023/04/26 11:54:29;;;;;;;5.82;1.13;;;9.10;55.90;;;;;;5005773;28;20258;-68
2023/04/26 11:56:56;;;;;;;3.05;0.93;;;9.20;55.90;;;;;;5018917;28;20081;-68
2023/04/26 11:59:26;;;;;;;3.67;0.80;;;9.20;54.20;;;;;;5002892;28;20369;-68
2023/04/26 12:01:53;;;;;;;4.25;1.02;;;9.20;55.30;;;;;;5002747;28;20484;-68
2023/04/26 12:04:27;;;;;;;4.13;1.17;;;9.30;56.70;;;;;;5021706;28;20054;-68
2023/04/26 12:06:55;;;;;;;3.47;1.10;;;9.20;57.70;;;;;;5020247;28;21057;-68
2023/04/26 12:09:23;;;;;;;4.95;1.55;;;9.20;57.60;;;;;;4999831;28;20829;-68
2023/04/26 12:11:57;;;;;;;4.10;1.88;;;9.20;58.40;;;;;;5023531;28;20132;-68
2023/04/26 12:14:31;;;;;;;5.97;0.95;;;9.20;59.20;;;;;;5017343;28;20043;-68
2023/04/26 12:17:00;;;;;;;4.40;1.43;;;9.20;60.20;;;;;;5000859;28;20901;-67
2023/04/26 12:19:27;;;;;;;5.70;1.60;;;9.20;59.40;;;;;;5000103;28;20273;-68
2023/04/26 12:21:55;;;;;;;4.70;0.82;;;9.20;59.60;;;;;;5020680;28;20144;-68
2023/04/26 12:24:23;;;;;;;3.55;1.00;;;9.20;58.60;;;;;;5020258;28;20057;-68
2023/04/26 12:26:50;;;;;;;3.65;1.08;;;9.20;58.40;;;;;;5024625;28;20100;-67
2023/04/26 12:29:18;;;;;;;4.57;1.43;;;9.10;57.50;;;;;;5025265;28;20080;-68
2023/04/26 12:31:46;;;;;;;3.35;0.80;;;9.00;58.20;;;;;;5023172;28;20260;-68
2023/04/26 12:34:14;;;;;;;4.55;1.10;;;9.00;57.60;;;;;;5024058;28;20050;-68
2023/04/26 12:36:42;;;;;;;5.55;1.33;;;9.00;57.40;;;;;;5019111;28;20098;-68
2023/04/26 12:39:10;;;;;;;5.38;1.60;;;9.00;57.60;;;;;;5022561;28;20053;-68
2023/04/26 12:41:37;;;;;;;6.63;1.50;;;9.00;59.50;;;;;;5007132;28;20056;-68
2023/04/26 12:44:05;;;;;;;5.40;1.60;;;8.90;60.70;;;;;;5018038;28;20596;-68
2023/04/26 12:46:32;;;;;;;5.38;1.50;;;8.90;62.00;;;;;;5009960;28;20475;-68
2023/04/26 12:49:00;;;;;;;3.78;1.33;;;9.00;62.30;;;;;;5010041;28;20049;-68
2023/04/26 12:51:30;;;;;;;5.30;1.20;;;9.00;61.10;;;;;;5029074;28;20046;-68
2023/04/26 12:53:57;;;;;;;7.77;1.27;;;9.00;61.10;;;;;;5014308;28;20117;-68
2023/04/26 12:56:24;;;;;;;6.97;1.23;;;9.00;61.70;;;;;;5005681;28;20805;-68
2023/04/26 12:58:51;;;;;;;4.80;1.23;;;9.00;61.30;;;;;;5007204;28;20054;-68
2023/04/26 13:01:18;;;;;;;3.90;1.23;;;9.00;60.80;;;;;;5006534;28;20486;-67
2023/04/26 13:03:45;;;;;;;6.70;1.60;;;9.00;61.60;;;;;;5006393;28;20145;-67
2023/04/26 13:06:14;;;;;;;7.03;1.60;;;9.00;61.90;;;;;;5010632;28;20142;-68